Rockton, Pennsylvania
Current Conditions -  °F | °C
As of 11:34 AM on Wednesday 26 Nov 2014 (Local Time) from KFIG Reporting Station
Light Snow Light Snow  
Wind Chill: 25°   Ceiling: 1700
Heat Index: 31°   Visibility: 0.75mi
Dew Point: 29°   Wind: 6mph
Humidity: 92%   Direction: 50°NE
Pressure: 30.06"   Gusts: NA
Location:  41.08°N, 78.65°W
Report Text: KFIG 261634Z AUTO 05005KT 3/4SM -SN BR VV017 M01/M02 A3006 RMK AO2 P0000 T10061017
Loading
Personal Weather Stations






























Interactive Weather Map New forecast layout! Learn more

10-Day Weather Forecast

Advertisements
Track Severe Weather on mobile